sensor_id;sensor_type;location;lat;lon;timestamp;temperature;humidity
55648;DHT22;45266;48.756;9.246;2024-02-26T00:01:07;4.70;80.50
55648;DHT22;45266;48.756;9.246;2024-02-26T00:06:08;4.70;80.80
55648;DHT22;45266;48.756;9.246;2024-02-26T00:11:11;4.70;81.40
55648;DHT22;45266;48.756;9.246;2024-02-26T00:16:13;4.70;81.40
55648;DHT22;45266;48.756;9.246;2024-02-26T00:21:15;4.60;81.80
55648;DHT22;45266;48.756;9.246;2024-02-26T00:26:16;4.50;81.80
55648;DHT22;45266;48.756;9.246;2024-02-26T00:31:18;4.50;81.90
55648;DHT22;45266;48.756;9.246;2024-02-26T00:36:20;4.50;82.70
55648;DHT22;45266;48.756;9.246;2024-02-26T00:41:22;4.50;82.10
55648;DHT22;45266;48.756;9.246;2024-02-26T00:46:24;4.50;82.70
55648;DHT22;45266;48.756;9.246;2024-02-26T00:51:26;4.40;82.50
55648;DHT22;45266;48.756;9.246;2024-02-26T00:56:28;4.40;83.00
55648;DHT22;45266;48.756;9.246;2024-02-26T01:01:30;4.40;83.70
55648;DHT22;45266;48.756;9.246;2024-02-26T01:06:32;4.40;83.60
55648;DHT22;45266;48.756;9.246;2024-02-26T01:11:34;4.40;83.90
55648;DHT22;45266;48.756;9.246;2024-02-26T01:16:35;4.40;83.50
55648;DHT22;45266;48.756;9.246;2024-02-26T01:21:37;4.40;83.30
55648;DHT22;45266;48.756;9.246;2024-02-26T01:26:39;4.60;82.70
55648;DHT22;45266;48.756;9.246;2024-02-26T01:31:41;4.60;81.50
55648;DHT22;45266;48.756;9.246;2024-02-26T01:36:43;4.70;81.40
55648;DHT22;45266;48.756;9.246;2024-02-26T01:41:45;4.70;80.30
55648;DHT22;45266;48.756;9.246;2024-02-26T01:46:48;4.70;80.70
55648;DHT22;45266;48.756;9.246;2024-02-26T01:51:50;4.70;81.20
55648;DHT22;45266;48.756;9.246;2024-02-26T01:56:52;4.60;81.40
55648;DHT22;45266;48.756;9.246;2024-02-26T02:01:56;4.60;81.40
55648;DHT22;45266;48.756;9.246;2024-02-26T02:07:00;4.50;82.10
55648;DHT22;45266;48.756;9.246;2024-02-26T02:12:02;4.50;81.80
55648;DHT22;45266;48.756;9.246;2024-02-26T02:17:04;4.60;81.20
55648;DHT22;45266;48.756;9.246;2024-02-26T02:22:06;4.70;80.70
55648;DHT22;45266;48.756;9.246;2024-02-26T02:27:07;4.70;81.20
55648;DHT22;45266;48.756;9.246;2024-02-26T02:32:09;4.50;81.20
55648;DHT22;45266;48.756;9.246;2024-02-26T02:37:11;4.50;81.20
55648;DHT22;45266;48.756;9.246;2024-02-26T02:42:13;4.50;80.70
55648;DHT22;45266;48.756;9.246;2024-02-26T02:47:15;4.60;80.80
55648;DHT22;45266;48.756;9.246;2024-02-26T02:52:17;4.70;80.40
55648;DHT22;45266;48.756;9.246;2024-02-26T02:57:19;4.70;78.90
55648;DHT22;45266;48.756;9.246;2024-02-26T03:02:21;4.80;80.00
55648;DHT22;45266;48.756;9.246;2024-02-26T03:07:23;4.80;80.60
55648;DHT22;45266;48.756;9.246;2024-02-26T03:12:25;4.80;79.90
55648;DHT22;45266;48.756;9.246;2024-02-26T03:17:27;4.90;81.20
55648;DHT22;45266;48.756;9.246;2024-02-26T03:22:29;4.90;81.00
55648;DHT22;45266;48.756;9.246;2024-02-26T03:27:31;4.90;81.80
55648;DHT22;45266;48.756;9.246;2024-02-26T03:32:33;4.90;80.30
55648;DHT22;45266;48.756;9.246;2024-02-26T03:37:35;4.90;80.50
55648;DHT22;45266;48.756;9.246;2024-02-26T03:42:36;4.90;81.00
55648;DHT22;45266;48.756;9.246;2024-02-26T03:47:38;4.90;79.10
55648;DHT22;45266;48.756;9.246;2024-02-26T03:52:43;5.00;77.90
55648;DHT22;45266;48.756;9.246;2024-02-26T03:57:45;5.10;78.00
55648;DHT22;45266;48.756;9.246;2024-02-26T04:02:47;5.00;78.70
55648;DHT22;45266;48.756;9.246;2024-02-26T04:07:49;5.00;80.50
55648;DHT22;45266;48.756;9.246;2024-02-26T04:12:51;5.00;81.90
55648;DHT22;45266;48.756;9.246;2024-02-26T04:17:52;5.00;81.20
55648;DHT22;45266;48.756;9.246;2024-02-26T04:22:54;5.00;80.70
55648;DHT22;45266;48.756;9.246;2024-02-26T04:27:56;5.00;81.20
55648;DHT22;45266;48.756;9.246;2024-02-26T04:32:58;5.00;81.40
55648;DHT22;45266;48.756;9.246;2024-02-26T04:38:00;4.90;81.40
55648;DHT22;45266;48.756;9.246;2024-02-26T04:43:02;4.90;81.00
55648;DHT22;45266;48.756;9.246;2024-02-26T04:48:04;5.00;82.00
55648;DHT22;45266;48.756;9.246;2024-02-26T04:53:06;5.00;81.80
55648;DHT22;45266;48.756;9.246;2024-02-26T04:58:08;5.00;81.20
55648;DHT22;45266;48.756;9.246;2024-02-26T05:03:10;4.90;81.70
55648;DHT22;45266;48.756;9.246;2024-02-26T05:08:15;4.90;81.00
55648;DHT22;45266;48.756;9.246;2024-02-26T05:13:17;5.00;80.90
55648;DHT22;45266;48.756;9.246;2024-02-26T05:18:19;5.00;81.00
55648;DHT22;45266;48.756;9.246;2024-02-26T05:23:21;4.90;81.10
55648;DHT22;45266;48.756;9.246;2024-02-26T05:28:24;5.00;81.00
55648;DHT22;45266;48.756;9.246;2024-02-26T05:33:26;5.00;80.20
55648;DHT22;45266;48.756;9.246;2024-02-26T05:38:28;5.00;80.60
55648;DHT22;45266;48.756;9.246;2024-02-26T05:43:30;5.00;80.70
55648;DHT22;45266;48.756;9.246;2024-02-26T05:48:32;5.00;80.90
55648;DHT22;45266;48.756;9.246;2024-02-26T05:53:34;5.00;81.40
55648;DHT22;45266;48.756;9.246;2024-02-26T05:58:36;5.00;81.80
55648;DHT22;45266;48.756;9.246;2024-02-26T06:03:38;4.90;83.10
55648;DHT22;45266;48.756;9.246;2024-02-26T06:08:41;4.90;85.30
55648;DHT22;45266;48.756;9.246;2024-02-26T06:13:43;4.90;86.10
55648;DHT22;45266;48.756;9.246;2024-02-26T06:18:45;4.80;87.30
55648;DHT22;45266;48.756;9.246;2024-02-26T06:23:47;4.70;87.00
55648;DHT22;45266;48.756;9.246;2024-02-26T06:28:49;4.60;87.50
55648;DHT22;45266;48.756;9.246;2024-02-26T06:33:51;4.50;88.00
55648;DHT22;45266;48.756;9.246;2024-02-26T06:38:53;4.50;88.70
55648;DHT22;45266;48.756;9.246;2024-02-26T06:43:56;4.50;89.40
55648;DHT22;45266;48.756;9.246;2024-02-26T06:48:58;4.50;89.50
55648;DHT22;45266;48.756;9.246;2024-02-26T06:54:00;4.50;89.40
55648;DHT22;45266;48.756;9.246;2024-02-26T06:59:02;4.40;89.70
55648;DHT22;45266;48.756;9.246;2024-02-26T07:04:04;4.40;90.20
55648;DHT22;45266;48.756;9.246;2024-02-26T07:09:06;4.50;89.90
55648;DHT22;45266;48.756;9.246;2024-02-26T07:14:12;4.70;90.30
55648;DHT22;45266;48.756;9.246;2024-02-26T07:19:14;4.70;89.70
55648;DHT22;45266;48.756;9.246;2024-02-26T07:24:16;4.80;89.20
55648;DHT22;45266;48.756;9.246;2024-02-26T07:29:18;4.90;89.00
55648;DHT22;45266;48.756;9.246;2024-02-26T07:34:20;4.90;88.50
55648;DHT22;45266;48.756;9.246;2024-02-26T07:39:22;5.00;88.40
55648;DHT22;45266;48.756;9.246;2024-02-26T07:44:25;5.00;88.70
55648;DHT22;45266;48.756;9.246;2024-02-26T07:49:27;5.10;88.40
55648;DHT22;45266;48.756;9.246;2024-02-26T07:54:29;5.20;88.00
55648;DHT22;45266;48.756;9.246;2024-02-26T07:59:31;5.30;87.60
55648;DHT22;45266;48.756;9.246;2024-02-26T08:04:33;5.50;87.40
55648;DHT22;45266;48.756;9.246;2024-02-26T08:09:35;5.50;87.10
55648;DHT22;45266;48.756;9.246;2024-02-26T08:14:37;5.80;86.20
55648;DHT22;45266;48.756;9.246;2024-02-26T08:19:39;5.80;85.00
55648;DHT22;45266;48.756;9.246;2024-02-26T08:24:44;6.00;85.50
55648;DHT22;45266;48.756;9.246;2024-02-26T08:29:46;6.10;85.40
55648;DHT22;45266;48.756;9.246;2024-02-26T08:34:48;6.10;80.40
55648;DHT22;45266;48.756;9.246;2024-02-26T08:39:50;6.30;77.10
55648;DHT22;45266;48.756;9.246;2024-02-26T08:44:52;6.40;75.70
55648;DHT22;45266;48.756;9.246;2024-02-26T08:49:56;6.60;74.70
55648;DHT22;45266;48.756;9.246;2024-02-26T08:54:58;6.70;74.00
55648;DHT22;45266;48.756;9.246;2024-02-26T09:00:01;6.90;72.80
55648;DHT22;45266;48.756;9.246;2024-02-26T09:05:03;7.00;71.90
55648;DHT22;45266;48.756;9.246;2024-02-26T09:10:06;7.20;70.50
55648;DHT22;45266;48.756;9.246;2024-02-26T09:15:10;7.20;69.80
55648;DHT22;45266;48.756;9.246;2024-02-26T09:20:13;7.20;69.10
55648;DHT22;45266;48.756;9.246;2024-02-26T09:25:17;7.20;69.00
55648;DHT22;45266;48.756;9.246;2024-02-26T09:30:19;7.30;68.50
55648;DHT22;45266;48.756;9.246;2024-02-26T09:35:21;7.50;68.50
55648;DHT22;45266;48.756;9.246;2024-02-26T09:40:23;7.70;68.30
55648;DHT22;45266;48.756;9.246;2024-02-26T09:45:26;7.90;66.80
55648;DHT22;45266;48.756;9.246;2024-02-26T09:50:29;8.10;64.70
55648;DHT22;45266;48.756;9.246;2024-02-26T09:55:31;8.10;64.00
55648;DHT22;45266;48.756;9.246;2024-02-26T10:00:37;8.20;65.50
55648;DHT22;45266;48.756;9.246;2024-02-26T10:05:41;8.40;66.00
55648;DHT22;45266;48.756;9.246;2024-02-26T10:10:45;8.60;64.50
55648;DHT22;45266;48.756;9.246;2024-02-26T10:15:47;8.90;62.60
55648;DHT22;45266;48.756;9.246;2024-02-26T10:21:16;9.00;61.00
55648;DHT22;45266;48.756;9.246;2024-02-26T10:26:20;9.20;60.50
55648;DHT22;45266;48.756;9.246;2024-02-26T10:31:22;9.20;60.10
55648;DHT22;45266;48.756;9.246;2024-02-26T10:36:26;9.60;58.90
55648;DHT22;45266;48.756;9.246;2024-02-26T10:41:45;9.80;57.70
55648;DHT22;45266;48.756;9.246;2024-02-26T10:46:47;9.90;57.00
55648;DHT22;45266;48.756;9.246;2024-02-26T10:51:56;10.00;57.30
55648;DHT22;45266;48.756;9.246;2024-02-26T10:57:01;10.00;57.40
55648;DHT22;45266;48.756;9.246;2024-02-26T11:02:04;10.30;57.40
55648;DHT22;45266;48.756;9.246;2024-02-26T11:07:09;10.50;55.40
55648;DHT22;45266;48.756;9.246;2024-02-26T11:12:13;10.80;55.20
55648;DHT22;45266;48.756;9.246;2024-02-26T11:17:16;10.80;54.80
55648;DHT22;45266;48.756;9.246;2024-02-26T11:22:21;10.90;54.30
55648;DHT22;45266;48.756;9.246;2024-02-26T11:27:30;11.10;54.60
55648;DHT22;45266;48.756;9.246;2024-02-26T11:32:34;11.10;55.10
55648;DHT22;45266;48.756;9.246;2024-02-26T11:37:37;11.10;55.60
55648;DHT22;45266;48.756;9.246;2024-02-26T11:42:45;11.20;55.80
55648;DHT22;45266;48.756;9.246;2024-02-26T11:47:56;11.40;54.80
55648;DHT22;45266;48.756;9.246;2024-02-26T11:58:25;11.80;54.60
55648;DHT22;45266;48.756;9.246;2024-02-26T12:03:28;11.90;54.10
55648;DHT22;45266;48.756;9.246;2024-02-26T12:08:34;12.10;53.50
55648;DHT22;45266;48.756;9.246;2024-02-26T12:13:36;12.30;53.00
55648;DHT22;45266;48.756;9.246;2024-02-26T12:18:38;12.50;54.00
55648;DHT22;45266;48.756;9.246;2024-02-26T12:23:43;12.60;52.40
55648;DHT22;45266;48.756;9.246;2024-02-26T12:28:46;12.70;52.20
55648;DHT22;45266;48.756;9.246;2024-02-26T12:33:48;12.70;51.70
55648;DHT22;45266;48.756;9.246;2024-02-26T12:38:51;12.80;53.70
55648;DHT22;45266;48.756;9.246;2024-02-26T12:43:53;12.90;50.90
55648;DHT22;45266;48.756;9.246;2024-02-26T12:48:57;12.90;50.50
55648;DHT22;45266;48.756;9.246;2024-02-26T12:54:01;13.20;50.20
55648;DHT22;45266;48.756;9.246;2024-02-26T12:59:06;13.40;49.70
55648;DHT22;45266;48.756;9.246;2024-02-26T13:04:09;13.50;49.70
55648;DHT22;45266;48.756;9.246;2024-02-26T13:09:13;13.60;48.70
55648;DHT22;45266;48.756;9.246;2024-02-26T13:14:19;13.50;48.50
55648;DHT22;45266;48.756;9.246;2024-02-26T13:19:22;13.30;49.40
55648;DHT22;45266;48.756;9.246;2024-02-26T13:24:24;13.40;50.20
55648;DHT22;45266;48.756;9.246;2024-02-26T13:29:27;13.50;49.80
55648;DHT22;45266;48.756;9.246;2024-02-26T13:34:29;13.50;48.90
55648;DHT22;45266;48.756;9.246;2024-02-26T13:39:33;13.70;49.50
55648;DHT22;45266;48.756;9.246;2024-02-26T13:44:37;13.80;48.80
55648;DHT22;45266;48.756;9.246;2024-02-26T13:49:41;13.90;48.50
55648;DHT22;45266;48.756;9.246;2024-02-26T13:54:45;14.00;49.00
55648;DHT22;45266;48.756;9.246;2024-02-26T13:59:47;13.90;47.10
55648;DHT22;45266;48.756;9.246;2024-02-26T14:04:50;14.10;47.70
55648;DHT22;45266;48.756;9.246;2024-02-26T14:09:52;14.30;47.00
55648;DHT22;45266;48.756;9.246;2024-02-26T14:14:54;14.50;46.40
55648;DHT22;45266;48.756;9.246;2024-02-26T14:19:57;14.40;43.50
55648;DHT22;45266;48.756;9.246;2024-02-26T14:24:59;14.10;42.30
55648;DHT22;45266;48.756;9.246;2024-02-26T14:30:01;13.90;43.70
55648;DHT22;45266;48.756;9.246;2024-02-26T14:35:09;13.80;43.60
55648;DHT22;45266;48.756;9.246;2024-02-26T14:40:18;13.90;43.00
55648;DHT22;45266;48.756;9.246;2024-02-26T14:45:20;13.90;42.90
55648;DHT22;45266;48.756;9.246;2024-02-26T14:50:22;13.80;44.00
55648;DHT22;45266;48.756;9.246;2024-02-26T14:55:25;13.60;43.90
55648;DHT22;45266;48.756;9.246;2024-02-26T15:00:27;13.50;45.10
55648;DHT22;45266;48.756;9.246;2024-02-26T15:05:29;13.30;45.50
55648;DHT22;45266;48.756;9.246;2024-02-26T15:10:31;13.30;46.40
55648;DHT22;45266;48.756;9.246;2024-02-26T15:15:34;13.20;46.30
55648;DHT22;45266;48.756;9.246;2024-02-26T15:20:37;13.20;46.10
55648;DHT22;45266;48.756;9.246;2024-02-26T15:25:40;13.10;46.50
55648;DHT22;45266;48.756;9.246;2024-02-26T15:30:43;12.90;47.20
55648;DHT22;45266;48.756;9.246;2024-02-26T15:35:45;12.80;47.40
55648;DHT22;45266;48.756;9.246;2024-02-26T15:40:47;12.80;47.40
55648;DHT22;45266;48.756;9.246;2024-02-26T15:45:49;12.70;48.40
55648;DHT22;45266;48.756;9.246;2024-02-26T15:50:52;12.60;48.50
55648;DHT22;45266;48.756;9.246;2024-02-26T15:55:54;12.50;49.00
55648;DHT22;45266;48.756;9.246;2024-02-26T16:00:56;12.50;49.40
55648;DHT22;45266;48.756;9.246;2024-02-26T16:11:44;12.30;50.70
55648;DHT22;45266;48.756;9.246;2024-02-26T16:17:02;12.10;51.80
55648;DHT22;45266;48.756;9.246;2024-02-26T16:22:05;12.10;51.60
55648;DHT22;45266;48.756;9.246;2024-02-26T16:27:07;12.00;53.00
55648;DHT22;45266;48.756;9.246;2024-02-26T16:32:09;11.90;53.00
55648;DHT22;45266;48.756;9.246;2024-02-26T16:37:12;11.90;53.70
55648;DHT22;45266;48.756;9.246;2024-02-26T16:42:14;11.90;53.60
55648;DHT22;45266;48.756;9.246;2024-02-26T16:47:16;11.70;53.80
55648;DHT22;45266;48.756;9.246;2024-02-26T16:52:18;11.70;54.30
55648;DHT22;45266;48.756;9.246;2024-02-26T16:57:20;11.50;57.00
55648;DHT22;45266;48.756;9.246;2024-02-26T17:02:24;11.20;57.00
55648;DHT22;45266;48.756;9.246;2024-02-26T17:07:26;11.10;56.70
55648;DHT22;45266;48.756;9.246;2024-02-26T17:12:28;10.90;56.20
55648;DHT22;45266;48.756;9.246;2024-02-26T17:17:30;10.80;54.40
55648;DHT22;45266;48.756;9.246;2024-02-26T17:22:32;10.70;56.00
55648;DHT22;45266;48.756;9.246;2024-02-26T17:27:34;10.50;57.60
55648;DHT22;45266;48.756;9.246;2024-02-26T17:32:36;10.20;57.40
55648;DHT22;45266;48.756;9.246;2024-02-26T17:37:38;10.00;57.20
55648;DHT22;45266;48.756;9.246;2024-02-26T17:42:39;10.00;58.40
55648;DHT22;45266;48.756;9.246;2024-02-26T17:47:41;9.90;59.30
55648;DHT22;45266;48.756;9.246;2024-02-26T17:52:44;9.70;60.60
55648;DHT22;45266;48.756;9.246;2024-02-26T17:57:45;9.70;61.70
55648;DHT22;45266;48.756;9.246;2024-02-26T18:02:47;9.50;62.60
55648;DHT22;45266;48.756;9.246;2024-02-26T18:07:50;9.40;62.90
55648;DHT22;45266;48.756;9.246;2024-02-26T18:12:52;9.20;64.30
55648;DHT22;45266;48.756;9.246;2024-02-26T18:17:55;9.20;65.10
55648;DHT22;45266;48.756;9.246;2024-02-26T18:22:57;9.10;65.10
55648;DHT22;45266;48.756;9.246;2024-02-26T18:27:59;9.00;66.30
55648;DHT22;45266;48.756;9.246;2024-02-26T18:33:01;8.90;66.10
55648;DHT22;45266;48.756;9.246;2024-02-26T18:38:05;8.90;66.70
55648;DHT22;45266;48.756;9.246;2024-02-26T18:43:07;8.90;66.70
55648;DHT22;45266;48.756;9.246;2024-02-26T18:48:09;8.80;67.40
55648;DHT22;45266;48.756;9.246;2024-02-26T18:53:11;8.80;69.00
55648;DHT22;45266;48.756;9.246;2024-02-26T18:58:13;8.60;70.00
55648;DHT22;45266;48.756;9.246;2024-02-26T19:03:15;8.50;70.80
55648;DHT22;45266;48.756;9.246;2024-02-26T19:08:17;8.40;71.40
55648;DHT22;45266;48.756;9.246;2024-02-26T19:13:19;8.40;72.30
55648;DHT22;45266;48.756;9.246;2024-02-26T19:18:21;8.20;71.50
55648;DHT22;45266;48.756;9.246;2024-02-26T19:23:23;8.10;72.10
55648;DHT22;45266;48.756;9.246;2024-02-26T19:28:25;8.00;73.00
55648;DHT22;45266;48.756;9.246;2024-02-26T19:33:27;8.00;73.20
55648;DHT22;45266;48.756;9.246;2024-02-26T19:38:31;8.00;73.80
55648;DHT22;45266;48.756;9.246;2024-02-26T19:43:33;7.80;74.80
55648;DHT22;45266;48.756;9.246;2024-02-26T19:48:35;7.80;74.90
55648;DHT22;45266;48.756;9.246;2024-02-26T19:53:39;7.80;74.40
55648;DHT22;45266;48.756;9.246;2024-02-26T19:58:41;7.70;75.10
55648;DHT22;45266;48.756;9.246;2024-02-26T20:03:43;7.60;75.20
55648;DHT22;45266;48.756;9.246;2024-02-26T20:08:50;7.60;75.50
55648;DHT22;45266;48.756;9.246;2024-02-26T20:13:52;7.50;75.50
55648;DHT22;45266;48.756;9.246;2024-02-26T20:18:54;7.50;75.60
55648;DHT22;45266;48.756;9.246;2024-02-26T20:23:56;7.50;75.70
55648;DHT22;45266;48.756;9.246;2024-02-26T20:28:58;7.50;75.40
55648;DHT22;45266;48.756;9.246;2024-02-26T20:34:01;7.50;75.20
55648;DHT22;45266;48.756;9.246;2024-02-26T20:39:04;7.50;74.90
55648;DHT22;45266;48.756;9.246;2024-02-26T20:44:06;7.50;75.00
55648;DHT22;45266;48.756;9.246;2024-02-26T20:49:09;7.50;75.20
55648;DHT22;45266;48.756;9.246;2024-02-26T20:54:11;7.50;75.70
55648;DHT22;45266;48.756;9.246;2024-02-26T20:59:15;7.50;75.50
55648;DHT22;45266;48.756;9.246;2024-02-26T21:04:17;7.50;75.80
55648;DHT22;45266;48.756;9.246;2024-02-26T21:09:24;7.50;75.40
55648;DHT22;45266;48.756;9.246;2024-02-26T21:14:26;7.40;77.00
55648;DHT22;45266;48.756;9.246;2024-02-26T21:19:28;7.50;77.90
55648;DHT22;45266;48.756;9.246;2024-02-26T21:24:30;7.40;79.40
55648;DHT22;45266;48.756;9.246;2024-02-26T21:29:35;7.50;74.80
55648;DHT22;45266;48.756;9.246;2024-02-26T21:34:40;7.90;72.00
55648;DHT22;45266;48.756;9.246;2024-02-26T21:39:42;8.10;70.80
55648;DHT22;45266;48.756;9.246;2024-02-26T21:44:44;8.10;72.30
55648;DHT22;45266;48.756;9.246;2024-02-26T21:49:46;8.10;73.40
55648;DHT22;45266;48.756;9.246;2024-02-26T21:54:49;8.00;75.30
55648;DHT22;45266;48.756;9.246;2024-02-26T21:59:51;7.80;77.10
55648;DHT22;45266;48.756;9.246;2024-02-26T22:04:53;7.80;77.50
55648;DHT22;45266;48.756;9.246;2024-02-26T22:09:55;7.60;78.80
55648;DHT22;45266;48.756;9.246;2024-02-26T22:14:57;7.60;78.60
55648;DHT22;45266;48.756;9.246;2024-02-26T22:19:59;7.50;79.70
55648;DHT22;45266;48.756;9.246;2024-02-26T22:25:01;7.50;80.80
55648;DHT22;45266;48.756;9.246;2024-02-26T22:30:03;7.40;81.70
55648;DHT22;45266;48.756;9.246;2024-02-26T22:35:06;7.50;81.40
55648;DHT22;45266;48.756;9.246;2024-02-26T22:40:08;7.40;80.90
55648;DHT22;45266;48.756;9.246;2024-02-26T22:45:11;7.40;81.60
55648;DHT22;45266;48.756;9.246;2024-02-26T22:50:15;7.30;82.40
55648;DHT22;45266;48.756;9.246;2024-02-26T22:55:17;7.20;83.50
55648;DHT22;45266;48.756;9.246;2024-02-26T23:00:20;7.10;84.20
55648;DHT22;45266;48.756;9.246;2024-02-26T23:05:38;7.00;84.10
55648;DHT22;45266;48.756;9.246;2024-02-26T23:10:40;7.10;84.50
55648;DHT22;45266;48.756;9.246;2024-02-26T23:15:43;7.10;84.60
55648;DHT22;45266;48.756;9.246;2024-02-26T23:20:45;7.20;84.00
55648;DHT22;45266;48.756;9.246;2024-02-26T23:25:47;7.10;84.10
55648;DHT22;45266;48.756;9.246;2024-02-26T23:30:48;7.00;84.30
55648;DHT22;45266;48.756;9.246;2024-02-26T23:35:51;7.00;85.00
55648;DHT22;45266;48.756;9.246;2024-02-26T23:40:53;7.00;85.00
55648;DHT22;45266;48.756;9.246;2024-02-26T23:45:54;7.00;84.50
55648;DHT22;45266;48.756;9.246;2024-02-26T23:50:56;7.00;83.70
55648;DHT22;45266;48.756;9.246;2024-02-26T23:55:58;7.00;84.20
